Time;durP1;ratioP1;P1;durP2;ratioP2;P2;SDS_P1;SDS_P2;PMS_P1;PMS_P2;Temp;Humidity;BMP_temperature;BMP_pressure;BME280_temperature;BME280_humidity;BME280_pressure;Samples;Min_cycle;Max_cycle;Signal;HPM_P1;HPM_P2
2022/05/04 00:01:35;;;;;;;36.97;4.93;;;5.60;99.90;;;;;;6323708;28;20238;-66
2022/05/04 00:04:42;;;;;;;33.77;3.30;;;5.70;99.90;;;;;;6304588;28;20722;-65
2022/05/04 00:07:47;;;;;;;23.73;3.43;;;5.70;99.90;;;;;;6322171;28;20233;-65
2022/05/04 00:10:53;;;;;;;18.83;3.17;;;5.60;99.90;;;;;;6335565;28;20575;-65
2022/05/04 00:13:58;;;;;;;37.23;4.20;;;5.60;99.90;;;;;;6348104;28;20235;-64
2022/05/04 00:17:04;;;;;;;26.63;3.00;;;5.60;99.90;;;;;;6348043;28;20232;-65
2022/05/04 00:20:13;;;;;;;12.47;2.50;;;5.50;99.90;;;;;;6348685;28;20216;-66
2022/05/04 00:23:19;;;;;;;22.47;2.70;;;5.50;99.90;;;;;;6347334;28;20256;-64
2022/05/04 00:26:24;;;;;;;11.00;2.83;;;5.40;99.90;;;;;;6347422;28;20225;-65
2022/05/04 00:29:29;;;;;;;7.47;2.03;;;5.30;99.90;;;;;;6329112;28;20237;-68
2022/05/04 00:32:35;;;;;;;17.03;2.50;;;5.30;99.90;;;;;;6329331;28;20231;-65
2022/05/04 00:35:42;;;;;;;8.50;2.30;;;5.30;99.90;;;;;;6348176;28;20213;-68
2022/05/04 00:38:48;;;;;;;9.43;2.10;;;5.20;99.90;;;;;;6346618;28;20236;-65
2022/05/04 00:41:53;;;;;;;9.57;2.07;;;5.20;99.90;;;;;;6347433;28;20653;-67
2022/05/04 00:44:58;;;;;;;4.83;2.13;;;5.30;99.90;;;;;;6346983;28;20648;-65
2022/05/04 00:48:05;;;;;;;7.73;1.90;;;5.20;99.90;;;;;;6337571;28;20238;-65
2022/05/04 00:51:12;;;;;;;12.33;2.50;;;5.30;99.90;;;;;;6322721;28;20209;-64
2022/05/04 00:54:17;;;;;;;13.70;2.40;;;5.30;99.90;;;;;;6321332;27;20692;-66
2022/05/04 01:00:43;;;;;;;9.43;2.30;;;5.30;99.90;;;;;;6322224;28;20237;-66
2022/05/04 01:03:49;;;;;;;18.50;2.63;;;5.40;99.90;;;;;;6320149;28;20225;-65
2022/05/04 01:06:56;;;;;;;20.33;2.80;;;5.40;99.90;;;;;;6322155;28;20229;-66
2022/05/04 01:10:00;;;;;;;23.17;2.70;;;5.30;99.90;;;;;;6316066;28;20199;-65
2022/05/04 01:13:05;;;;;;;10.23;2.47;;;5.30;99.90;;;;;;6296335;28;20234;-65
2022/05/04 01:16:11;;;;;;;9.43;2.10;;;5.40;99.90;;;;;;6296675;28;20213;-65
2022/05/04 01:19:16;;;;;;;15.37;2.10;;;5.30;99.90;;;;;;6296431;28;20238;-64
2022/05/04 01:22:23;;;;;;;19.63;2.60;;;5.30;99.90;;;;;;6295781;28;20226;-65
2022/05/04 01:25:29;;;;;;;12.70;2.70;;;5.20;99.90;;;;;;6296856;28;20204;-65
2022/05/04 01:28:35;;;;;;;15.87;2.33;;;5.20;99.90;;;;;;6296579;28;20244;-66
2022/05/04 01:31:41;;;;;;;7.87;2.17;;;5.10;99.90;;;;;;6296888;28;20204;-66
2022/05/04 01:34:46;;;;;;;11.67;2.47;;;5.00;99.90;;;;;;6296270;28;20238;-68
2022/05/04 01:37:55;;;;;;;9.87;1.80;;;5.10;99.90;;;;;;6294430;28;20237;-65
2022/05/04 01:41:01;;;;;;;10.13;2.60;;;5.00;99.90;;;;;;6296253;28;20217;-65
2022/05/04 01:44:06;;;;;;;7.63;2.20;;;5.00;99.90;;;;;;6295835;28;20248;-64
2022/05/04 01:47:13;;;;;;;8.23;2.07;;;5.10;99.90;;;;;;6295803;28;20226;-65
2022/05/04 01:50:19;;;;;;;8.73;2.80;;;5.00;99.90;;;;;;6296094;28;20209;-65
2022/05/04 01:53:25;;;;;;;14.63;2.30;;;5.00;99.90;;;;;;6296261;28;20237;-65
2022/05/04 01:56:31;;;;;;;10.83;2.17;;;5.00;99.90;;;;;;6294894;28;20629;-65
2022/05/04 01:59:36;;;;;;;8.97;2.43;;;5.10;99.90;;;;;;6299453;28;20259;-65
2022/05/04 02:02:41;;;;;;;12.97;2.33;;;5.00;99.90;;;;;;6300872;28;20635;-65
2022/05/04 02:05:47;;;;;;;7.87;2.37;;;5.00;99.90;;;;;;6301332;28;20210;-65
2022/05/04 02:08:55;;;;;;;5.77;1.60;;;5.00;99.90;;;;;;6300737;28;20248;-65
2022/05/04 02:12:00;;;;;;;4.00;2.00;;;5.00;99.90;;;;;;6321130;27;20212;-65
2022/05/04 02:15:09;;;;;;;3.43;2.10;;;5.00;99.90;;;;;;6326051;28;20673;-64
2022/05/04 02:18:16;;;;;;;7.50;2.00;;;5.00;99.90;;;;;;6325310;27;20327;-65
2022/05/04 02:21:22;;;;;;;4.83;1.97;;;5.00;99.90;;;;;;6325828;28;20220;-66
2022/05/04 02:24:28;;;;;;;5.33;1.90;;;5.00;99.90;;;;;;6325515;27;20243;-65
2022/05/04 02:27:34;;;;;;;1.97;1.73;;;4.90;99.90;;;;;;6325377;27;20685;-66
2022/05/04 02:30:39;;;;;;;3.60;1.67;;;4.80;99.90;;;;;;6325657;28;20215;-65
2022/05/04 02:33:44;;;;;;;4.73;2.23;;;4.80;99.90;;;;;;6324963;28;20236;-65
2022/05/04 02:40:14;;;;;;;7.17;2.10;;;4.90;99.90;;;;;;6323259;28;20208;-65
2022/05/04 02:43:20;;;;;;;7.30;2.13;;;4.70;99.90;;;;;;6324284;28;20228;-65
2022/05/04 02:46:28;;;;;;;8.60;1.83;;;4.60;99.90;;;;;;6324648;28;20209;-65
2022/05/04 02:49:33;;;;;;;3.10;1.97;;;4.70;99.90;;;;;;6324685;28;20239;-66
2022/05/04 02:52:41;;;;;;;6.43;2.23;;;4.80;99.90;;;;;;6324067;28;20228;-65
2022/05/04 02:55:48;;;;;;;2.80;1.67;;;4.80;99.90;;;;;;6325265;28;20640;-65
2022/05/04 02:58:53;;;;;;;4.87;2.10;;;4.80;99.90;;;;;;6324403;28;20715;-65
2022/05/04 03:05:22;;;;;;;7.10;2.10;;;4.80;99.90;;;;;;6316473;28;20212;-66
2022/05/04 03:08:28;;;;;;;5.80;1.80;;;4.80;99.90;;;;;;6299542;28;20677;-66
2022/05/04 03:14:57;;;;;;;2.00;1.87;;;4.90;99.90;;;;;;6329627;28;20247;-64
2022/05/04 03:18:03;;;;;;;5.20;2.23;;;4.90;99.90;;;;;;6331020;27;20236;-66
2022/05/04 03:21:10;;;;;;;4.80;2.00;;;4.90;99.90;;;;;;6328450;28;20205;-65
2022/05/04 03:24:16;;;;;;;1.73;1.70;;;4.90;99.90;;;;;;6324291;27;20245;-66
2022/05/04 03:27:22;;;;;;;1.73;1.63;;;4.90;99.90;;;;;;6323936;27;20223;-66
2022/05/04 03:30:27;;;;;;;2.90;1.50;;;4.90;99.90;;;;;;6324006;28;20204;-65
2022/05/04 03:33:33;;;;;;;6.13;2.10;;;4.90;99.90;;;;;;6323524;27;20229;-65
2022/05/04 03:36:38;;;;;;;2.50;1.90;;;5.00;99.90;;;;;;6312324;28;20280;-65
2022/05/04 03:39:43;;;;;;;5.37;2.10;;;5.00;99.90;;;;;;6298181;28;20238;-65
2022/05/04 03:42:52;;;;;;;9.43;2.00;;;5.00;99.90;;;;;;6298186;28;20232;-65
2022/05/04 03:46:13;;;;;;;3.03;1.90;;;5.00;99.90;;;;;;6299273;28;20212;-65
2022/05/04 03:49:21;;;;;;;3.47;1.83;;;5.10;99.90;;;;;;6299428;28;20595;-65
2022/05/04 03:52:27;;;;;;;2.17;2.03;;;5.10;99.90;;;;;;6299576;28;20235;-65
2022/05/04 03:55:33;;;;;;;6.97;2.00;;;5.10;99.90;;;;;;6300238;28;20200;-66
2022/05/04 03:58:40;;;;;;;4.63;1.93;;;5.20;99.90;;;;;;6296614;28;20233;-66
2022/05/04 04:01:45;;;;;;;5.27;2.13;;;5.20;99.90;;;;;;6298442;28;20217;-65
2022/05/04 04:04:51;;;;;;;2.00;1.90;;;5.20;99.90;;;;;;6298190;28;20236;-65
2022/05/04 04:07:56;;;;;;;4.37;1.80;;;5.40;99.90;;;;;;6297720;28;20624;-66
2022/05/04 04:11:02;;;;;;;2.00;1.90;;;5.40;99.90;;;;;;6311486;28;20202;-64
2022/05/04 04:14:09;;;;;;;2.10;2.00;;;5.50;99.90;;;;;;6322069;28;20233;-65
2022/05/04 04:17:14;;;;;;;1.63;1.53;;;5.50;99.90;;;;;;6322872;28;20558;-65
2022/05/04 04:23:43;;;;;;;1.30;1.30;;;5.50;99.90;;;;;;6303884;28;20237;-65
2022/05/04 04:26:49;;;;;;;2.93;1.33;;;5.60;99.90;;;;;;6322300;28;20213;-65
2022/05/04 04:29:55;;;;;;;1.20;1.00;;;5.50;99.90;;;;;;6321753;28;20243;-65
2022/05/04 04:33:01;;;;;;;1.13;1.13;;;5.50;99.90;;;;;;6322382;28;20238;-66
2022/05/04 04:36:08;;;;;;;1.10;1.10;;;5.50;99.90;;;;;;6322670;28;20231;-65
2022/05/04 04:39:13;;;;;;;1.60;1.50;;;5.50;99.90;;;;;;6322341;28;20248;-66
2022/05/04 04:42:18;;;;;;;1.73;1.47;;;5.60;99.90;;;;;;6322123;28;20212;-66
2022/05/04 04:45:25;;;;;;;2.00;1.33;;;5.60;99.90;;;;;;6323001;28;20201;-66
2022/05/04 04:48:30;;;;;;;3.63;1.97;;;5.60;99.90;;;;;;6304079;28;20245;-65
2022/05/04 04:51:35;;;;;;;1.30;1.30;;;5.70;99.90;;;;;;6326185;28;20206;-65
2022/05/04 04:54:41;;;;;;;2.77;1.30;;;5.70;99.90;;;;;;6336659;28;20256;-63
2022/05/04 04:57:47;;;;;;;4.50;1.30;;;5.80;99.90;;;;;;6335789;28;20237;-66
2022/05/04 05:00:54;;;;;;;1.30;1.30;;;5.90;99.90;;;;;;6322960;28;20256;-66
2022/05/04 05:03:59;;;;;;;1.33;1.23;;;5.90;99.90;;;;;;6322190;28;20245;-66
2022/05/04 05:07:05;;;;;;;2.30;1.23;;;5.90;99.90;;;;;;6321230;28;20202;-64
2022/05/04 05:10:11;;;;;;;1.10;1.10;;;5.90;99.90;;;;;;6321704;28;20213;-65
2022/05/04 05:13:17;;;;;;;2.53;1.20;;;6.00;99.90;;;;;;6321941;28;20239;-65
2022/05/04 05:16:23;;;;;;;1.33;1.33;;;6.10;99.90;;;;;;6322488;28;20286;-65
2022/05/04 05:19:28;;;;;;;1.10;1.10;;;6.10;99.90;;;;;;6321703;28;20245;-64
2022/05/04 05:22:33;;;;;;;3.90;1.20;;;6.10;99.90;;;;;;6321757;28;20604;-64
2022/05/04 05:25:39;;;;;;;1.27;1.20;;;6.20;99.80;;;;;;6322150;28;20210;-65
2022/05/04 05:28:44;;;;;;;0.97;0.97;;;6.20;99.30;;;;;;6321524;28;20231;-64
2022/05/04 05:31:51;;;;;;;2.77;1.20;;;6.30;98.60;;;;;;6323013;28;20221;-64
2022/05/04 05:34:56;;;;;;;1.03;1.03;;;6.30;97.90;;;;;;6326590;28;20267;-65
2022/05/04 05:38:02;;;;;;;2.20;0.87;;;6.30;97.50;;;;;;6325957;28;20242;-65
2022/05/04 05:41:07;;;;;;;2.93;1.00;;;6.40;97.70;;;;;;6326701;28;20224;-65
2022/05/04 05:44:12;;;;;;;7.53;1.47;;;6.50;98.20;;;;;;6326169;28;20240;-65
2022/05/04 05:47:19;;;;;;;1.33;1.20;;;6.60;97.40;;;;;;6325781;28;20203;-64
2022/05/04 05:50:25;;;;;;;3.00;1.10;;;6.60;97.00;;;;;;6326354;28;20225;-65
2022/05/04 05:53:31;;;;;;;4.17;1.73;;;6.70;96.50;;;;;;6325581;28;20576;-65
2022/05/04 05:56:36;;;;;;;2.83;0.97;;;6.80;96.50;;;;;;6326943;28;20222;-66
2022/05/04 05:59:42;;;;;;;3.97;1.13;;;6.90;96.10;;;;;;6326391;28;20249;-66
2022/05/04 06:02:48;;;;;;;2.20;1.10;;;7.00;96.20;;;;;;6325997;28;20230;-65
2022/05/04 06:05:54;;;;;;;2.00;1.07;;;7.10;95.70;;;;;;6326645;28;20202;-64
2022/05/04 06:08:59;;;;;;;1.20;1.00;;;7.20;94.80;;;;;;6325737;28;20241;-64
2022/05/04 06:12:05;;;;;;;0.77;0.77;;;7.30;94.30;;;;;;6325411;28;20218;-65
2022/05/04 06:15:11;;;;;;;0.90;0.90;;;7.40;93.50;;;;;;6326309;28;20206;-65
2022/05/04 06:18:20;;;;;;;1.13;1.00;;;7.40;93.10;;;;;;6325561;28;20230;-64
2022/05/04 06:21:25;;;;;;;0.93;0.93;;;7.60;93.90;;;;;;6326473;28;20569;-65
2022/05/04 06:24:30;;;;;;;2.20;1.08;;;7.70;92.50;;;;;;6324898;28;20722;-65
2022/05/04 06:27:36;;;;;;;2.67;1.00;;;7.90;93.10;;;;;;6325414;28;20241;-66
2022/05/04 06:34:08;;;;;;;3.55;1.33;;;8.00;90.30;;;;;;6325249;28;20244;-64
2022/05/04 06:37:13;;;;;;;1.83;1.60;;;8.00;89.50;;;;;;6324620;28;20207;-65
2022/05/04 06:40:20;;;;;;;0.90;0.90;;;8.10;85.60;;;;;;6325255;28;20211;-65
2022/05/04 06:43:26;;;;;;;2.22;1.00;;;8.10;81.30;;;;;;6306093;28;20608;-64
2022/05/04 06:46:31;;;;;;;2.33;1.45;;;8.20;81.90;;;;;;6325688;28;20306;-65
2022/05/04 06:49:38;;;;;;;0.98;0.88;;;8.30;81.80;;;;;;6325179;28;20222;-65
2022/05/04 06:52:44;;;;;;;0.95;0.90;;;8.40;76.80;;;;;;6325059;28;20603;-65
2022/05/04 06:55:49;;;;;;;0.80;0.80;;;8.50;74.30;;;;;;6325498;28;20222;-65
2022/05/04 06:58:54;;;;;;;4.38;1.00;;;8.50;72.20;;;;;;6324539;28;20617;-66
2022/05/04 07:02:00;;;;;;;1.30;1.30;;;8.60;73.20;;;;;;6324828;28;20218;-65
2022/05/04 07:05:08;;;;;;;2.15;0.90;;;8.70;74.20;;;;;;6323659;28;20211;-64
2022/05/04 07:08:16;;;;;;;4.10;1.00;;;8.90;76.00;;;;;;6324239;28;20235;-64
2022/05/04 07:11:21;;;;;;;3.08;1.38;;;8.90;71.90;;;;;;6308528;28;20234;-65
2022/05/04 07:14:27;;;;;;;18.17;2.30;;;9.00;72.00;;;;;;6298880;28;20234;-64
2022/05/04 07:17:33;;;;;;;7.15;1.67;;;9.30;67.50;;;;;;6299240;28;20234;-65
2022/05/04 07:20:40;;;;;;;29.08;3.33;;;9.40;65.90;;;;;;6299293;28;20556;-65
2022/05/04 07:23:45;;;;;;;4.38;1.27;;;9.60;70.00;;;;;;6298842;28;20242;-65
2022/05/04 07:26:51;;;;;;;5.50;1.02;;;9.70;64.00;;;;;;6299192;28;20278;-65
2022/05/04 07:29:56;;;;;;;4.03;1.00;;;9.70;61.50;;;;;;6297831;28;20231;-67
2022/05/04 07:33:01;;;;;;;2.80;1.20;;;9.70;57.30;;;;;;6298670;28;20234;-65
2022/05/04 07:36:09;;;;;;;1.55;0.80;;;9.90;56.70;;;;;;6299671;28;20211;-64
2022/05/04 07:42:21;;;;;;;3.10;0.90;;;10.00;55.90;;;;;;6298754;28;20234;-64
2022/05/04 07:42:41;;;;;;;1.40;1.00;;;10.00;55.70;;;;;;6298864;28;20235;-65
2022/05/04 07:45:47;;;;;;;1.95;1.00;;;10.00;54.00;;;;;;6299439;28;20203;-65
2022/05/04 07:48:52;;;;;;;2.60;0.90;;;10.10;53.70;;;;;;6298536;28;20590;-65
2022/05/04 07:51:58;;;;;;;2.65;0.93;;;10.30;52.30;;;;;;6299157;28;20548;-66
2022/05/04 07:55:05;;;;;;;4.53;1.00;;;10.20;49.40;;;;;;6298228;28;20212;-64
2022/05/04 07:58:11;;;;;;;3.70;0.90;;;10.20;50.10;;;;;;6298490;28;20234;-67
2022/05/04 08:04:39;;;;;;;3.28;1.15;;;10.40;47.70;;;;;;6296841;28;20224;-66
2022/05/04 08:07:46;;;;;;;1.70;1.58;;;10.40;48.10;;;;;;6298634;28;20235;-65
2022/05/04 08:10:51;;;;;;;0.80;0.80;;;10.50;46.90;;;;;;6314372;28;20203;-65
2022/05/04 08:13:57;;;;;;;0.90;0.90;;;10.40;45.40;;;;;;6323864;27;20241;-66
2022/05/04 08:17:06;;;;;;;1.67;1.00;;;10.50;45.20;;;;;;6322618;27;20215;-64
2022/05/04 08:20:13;;;;;;;0.70;0.70;;;10.40;44.30;;;;;;6323903;28;20214;-65
2022/05/04 08:23:19;;;;;;;2.28;0.90;;;10.30;44.00;;;;;;6321670;28;20222;-65
2022/05/04 08:26:25;;;;;;;2.90;0.80;;;10.40;45.30;;;;;;6323630;28;20209;-67
2022/05/04 08:29:31;;;;;;;2.97;1.63;;;10.50;45.00;;;;;;6323440;28;20234;-65
2022/05/04 08:32:36;;;;;;;2.90;0.90;;;10.50;45.00;;;;;;6323711;28;20253;-66
2022/05/04 08:35:42;;;;;;;2.38;1.10;;;10.60;44.90;;;;;;6324637;28;20665;-64
2022/05/04 08:38:49;;;;;;;8.55;1.30;;;10.70;44.90;;;;;;6322694;28;20223;-65
2022/05/04 08:41:55;;;;;;;7.43;0.90;;;10.70;44.60;;;;;;6322577;28;20206;-65
2022/05/04 08:45:01;;;;;;;2.22;0.73;;;10.90;44.20;;;;;;6322240;28;20226;-65
2022/05/04 08:48:08;;;;;;;1.17;1.13;;;10.90;44.40;;;;;;6322235;28;20229;-66
2022/05/04 08:51:14;;;;;;;1.85;0.77;;;11.00;45.10;;;;;;6323334;28;20633;-65
2022/05/04 08:54:21;;;;;;;0.90;0.88;;;11.00;44.60;;;;;;6321821;28;20230;-65
2022/05/04 08:57:26;;;;;;;7.03;0.98;;;10.90;43.80;;;;;;6321673;28;20232;-65
2022/05/04 09:00:32;;;;;;;2.75;1.20;;;10.90;43.70;;;;;;6322484;28;20241;-65
2022/05/04 09:03:38;;;;;;;2.80;1.23;;;10.90;43.80;;;;;;6321951;28;20264;-65
2022/05/04 09:06:44;;;;;;;6.03;1.30;;;10.90;44.30;;;;;;6322699;28;20210;-66
2022/05/04 09:09:53;;;;;;;3.15;1.20;;;11.00;43.40;;;;;;6318364;27;20227;-65
2022/05/04 09:13:00;;;;;;;2.10;1.02;;;11.00;41.70;;;;;;6296537;28;20254;-66
2022/05/04 09:16:06;;;;;;;5.85;1.00;;;11.10;42.10;;;;;;6296943;28;20199;-65
2022/05/04 09:19:14;;;;;;;4.05;1.13;;;11.20;42.60;;;;;;6296704;28;20686;-65
2022/05/04 09:22:19;;;;;;;3.08;1.00;;;11.20;41.40;;;;;;6296246;28;20208;-66
2022/05/04 09:25:26;;;;;;;1.27;0.85;;;11.30;40.90;;;;;;6297232;28;20553;-66
2022/05/04 09:28:32;;;;;;;0.80;0.80;;;11.40;40.30;;;;;;6297011;28;20239;-65
2022/05/04 09:31:41;;;;;;;4.85;1.13;;;11.30;41.00;;;;;;6296859;28;20203;-66
2022/05/04 09:34:47;;;;;;;4.80;1.20;;;11.20;40.60;;;;;;6296661;28;20243;-65
2022/05/04 09:44:57;;;;;;;1.73;0.90;;;11.30;41.40;;;;;;6296449;28;20237;-68
2022/05/04 09:48:02;;;;;;;0.90;0.90;;;11.20;40.10;;;;;;6294444;28;20223;-65
2022/05/04 09:51:09;;;;;;;4.47;1.17;;;11.10;40.60;;;;;;6296538;28;20269;-66
2022/05/04 09:54:20;;;;;;;6.32;1.27;;;11.20;40.30;;;;;;6296493;28;20235;-67
2022/05/04 09:57:27;;;;;;;2.67;1.20;;;11.20;40.60;;;;;;6296516;28;20226;-65
2022/05/04 10:00:36;;;;;;;7.43;1.33;;;11.30;40.60;;;;;;6297972;28;20237;-65
2022/05/04 10:03:41;;;;;;;1.48;0.80;;;11.40;40.40;;;;;;6297505;28;20235;-67
2022/05/04 10:06:49;;;;;;;5.13;1.17;;;11.50;40.00;;;;;;6302017;28;20199;-65
2022/05/04 10:09:54;;;;;;;1.88;1.00;;;11.50;39.30;;;;;;6306866;28;20304;-65
2022/05/04 10:13:02;;;;;;;5.35;1.00;;;11.50;40.00;;;;;;6324538;28;20241;-65
2022/05/04 10:16:10;;;;;;;1.00;1.00;;;11.60;39.60;;;;;;6321650;28;20645;-65
2022/05/04 10:19:22;;;;;;;2.60;1.00;;;11.60;39.30;;;;;;6322662;28;20321;-65
2022/05/04 10:22:35;;;;;;;5.15;1.30;;;11.70;39.40;;;;;;6325824;28;20223;-65
2022/05/04 10:25:41;;;;;;;4.32;1.20;;;11.70;39.60;;;;;;6325635;28;20215;-65
2022/05/04 10:32:12;;;;;;;0.90;0.90;;;11.90;39.50;;;;;;6324625;28;20313;-65
2022/05/04 10:35:28;;;;;;;0.90;0.90;;;11.90;39.10;;;;;;6325822;28;20227;-65
2022/05/04 10:38:34;;;;;;;5.22;1.10;;;12.10;39.50;;;;;;6325299;28;20227;-66
2022/05/04 10:41:41;;;;;;;1.23;1.23;;;12.10;40.00;;;;;;6325870;28;20225;-66
2022/05/04 10:44:54;;;;;;;0.82;0.70;;;12.20;38.40;;;;;;6325020;28;20237;-65
2022/05/04 10:48:28;;;;;;;0.75;0.75;;;12.20;38.70;;;;;;6325584;28;20604;-66
2022/05/04 10:51:36;;;;;;;0.93;0.90;;;12.20;38.70;;;;;;6316594;28;20563;-65
2022/05/04 10:54:49;;;;;;;0.75;0.75;;;12.40;38.20;;;;;;6324852;27;20238;-65
2022/05/04 10:57:55;;;;;;;1.17;1.15;;;12.40;37.30;;;;;;6325729;28;20703;-66
2022/05/04 11:01:20;;;;;;;1.10;1.10;;;12.50;41.40;;;;;;6333206;28;20237;-66
2022/05/04 11:04:25;;;;;;;2.42;1.17;;;12.60;44.00;;;;;;6334673;28;20550;-67
2022/05/04 11:07:38;;;;;;;2.17;1.10;;;12.80;44.30;;;;;;6331933;28;20222;-66
2022/05/04 11:10:44;;;;;;;3.92;1.08;;;12.60;45.30;;;;;;6314786;28;20601;-66
2022/05/04 11:13:50;;;;;;;2.83;1.13;;;12.60;45.90;;;;;;6298949;28;20243;-65
2022/05/04 11:16:59;;;;;;;2.10;0.80;;;12.40;45.50;;;;;;6299640;28;20207;-66
2022/05/04 11:20:07;;;;;;;3.38;1.00;;;12.40;45.90;;;;;;6298926;28;20211;-65
2022/05/04 11:23:12;;;;;;;1.10;1.00;;;12.60;44.30;;;;;;6300379;28;20237;-66
2022/05/04 11:26:20;;;;;;;1.20;1.05;;;12.70;43.20;;;;;;6301320;28;20615;-65
2022/05/04 11:29:28;;;;;;;1.35;1.10;;;12.70;45.10;;;;;;6299318;28;20231;-65
2022/05/04 11:32:34;;;;;;;5.15;1.15;;;12.60;46.30;;;;;;6298999;28;20341;-65
2022/05/04 11:35:42;;;;;;;4.22;1.20;;;12.60;46.20;;;;;;6299125;28;20232;-66
2022/05/04 11:38:49;;;;;;;3.92;1.10;;;12.80;46.20;;;;;;6298039;28;20233;-67
2022/05/04 11:41:57;;;;;;;0.88;0.88;;;12.70;44.40;;;;;;6297729;28;20199;-66
2022/05/04 11:45:03;;;;;;;33.83;2.45;;;12.90;41.70;;;;;;6297971;28;20223;-66
2022/05/04 11:48:14;;;;;;;5.22;1.35;;;13.00;40.40;;;;;;6298231;28;20237;-65
2022/05/04 11:51:19;;;;;;;1.33;1.00;;;13.00;44.30;;;;;;6298694;28;20203;-64
2022/05/04 11:54:25;;;;;;;1.95;0.95;;;13.20;39.70;;;;;;6298079;28;20261;-65
2022/05/04 11:57:39;;;;;;;1.67;0.90;;;13.20;38.70;;;;;;6297718;28;20223;-65
2022/05/04 12:00:45;;;;;;;5.40;1.00;;;13.30;38.10;;;;;;6298154;28;20230;-64
2022/05/04 12:03:52;;;;;;;2.20;1.00;;;13.40;37.60;;;;;;6297798;28;20340;-65
2022/05/04 12:06:58;;;;;;;4.05;0.98;;;13.50;37.30;;;;;;6298633;28;20567;-65
2022/05/04 12:10:04;;;;;;;1.05;1.00;;;13.50;36.50;;;;;;6327638;28;20209;-65
2022/05/04 12:13:14;;;;;;;11.13;1.13;;;13.50;36.70;;;;;;6338165;28;20227;-64
2022/05/04 12:16:20;;;;;;;1.77;1.10;;;13.50;36.70;;;;;;6323626;28;20233;-66
2022/05/04 12:19:30;;;;;;;1.05;0.95;;;13.60;37.70;;;;;;6322921;28;20570;-65
2022/05/04 12:22:36;;;;;;;8.90;1.27;;;13.60;36.60;;;;;;6321772;28;20224;-65
2022/05/04 12:25:43;;;;;;;1.13;1.02;;;13.50;36.80;;;;;;6322807;28;20218;-66
2022/05/04 12:35:43;;;;;;;5.38;1.17;;;13.50;36.70;;;;;;6323091;28;20574;-65
2022/05/04 12:38:50;;;;;;;3.90;1.10;;;13.60;36.80;;;;;;6322521;28;20230;-67
2022/05/04 12:41:57;;;;;;;12.25;1.15;;;13.80;35.90;;;;;;6322654;28;20662;-65
2022/05/04 12:45:02;;;;;;;3.80;1.17;;;13.80;33.70;;;;;;6329032;28;20229;-64
2022/05/04 12:48:10;;;;;;;6.72;1.00;;;13.80;33.10;;;;;;6346898;28;20609;-65
2022/05/04 12:51:19;;;;;;;1.15;0.95;;;13.90;33.50;;;;;;6348141;28;20636;-67
2022/05/04 12:54:26;;;;;;;6.90;2.05;;;14.10;32.80;;;;;;6347074;28;20236;-66
2022/05/04 12:57:32;;;;;;;2.55;0.90;;;14.10;31.80;;;;;;6347020;28;20221;-65
2022/05/04 13:00:37;;;;;;;6.05;1.10;;;14.10;31.90;;;;;;6328661;28;20221;-65
2022/05/04 13:03:43;;;;;;;4.00;1.13;;;14.10;31.30;;;;;;6346877;28;20614;-66
2022/05/04 13:06:50;;;;;;;2.15;0.80;;;14.00;31.60;;;;;;6347654;28;20209;-65
2022/05/04 13:09:56;;;;;;;2.17;1.10;;;14.00;31.60;;;;;;6340868;28;20222;-66
2022/05/04 13:13:01;;;;;;;2.10;1.08;;;14.10;31.10;;;;;;6321572;28;20232;-65
2022/05/04 13:16:12;;;;;;;3.70;1.10;;;14.10;30.40;;;;;;6322175;28;20671;-65
2022/05/04 13:19:18;;;;;;;1.50;1.40;;;14.60;30.60;;;;;;6321528;28;20333;-66
2022/05/04 13:22:25;;;;;;;6.20;1.67;;;14.80;31.30;;;;;;6321412;28;20660;-66
2022/05/04 13:25:30;;;;;;;4.85;0.90;;;14.50;31.90;;;;;;6322132;28;20209;-65
2022/05/04 13:28:36;;;;;;;5.20;1.00;;;14.30;32.40;;;;;;6320887;28;20672;-66
2022/05/04 13:31:41;;;;;;;6.07;1.00;;;13.90;33.10;;;;;;6321656;28;20198;-65
2022/05/04 13:34:47;;;;;;;14.60;1.40;;;13.90;33.40;;;;;;6321298;28;20245;-67
2022/05/04 13:37:54;;;;;;;11.18;1.27;;;14.00;33.40;;;;;;6321191;28;20680;-66
2022/05/04 13:41:00;;;;;;;4.00;0.80;;;14.10;33.10;;;;;;6322092;28;20213;-66
2022/05/04 13:44:06;;;;;;;4.97;1.20;;;14.00;33.90;;;;;;6321610;28;20229;-67
2022/05/04 13:47:11;;;;;;;20.45;1.67;;;13.90;33.80;;;;;;6321446;28;20202;-66
2022/05/04 13:53:41;;;;;;;6.93;0.93;;;13.80;33.30;;;;;;6323511;28;20603;-66
2022/05/04 13:56:46;;;;;;;4.32;1.10;;;13.70;33.70;;;;;;6307973;28;20222;-66
2022/05/04 13:59:51;;;;;;;5.07;1.08;;;13.80;33.40;;;;;;6326212;28;20239;-65
2022/05/04 14:02:57;;;;;;;2.15;0.88;;;13.90;33.80;;;;;;6325314;28;20230;-65
2022/05/04 14:06:02;;;;;;;2.70;0.82;;;13.80;33.80;;;;;;6308348;28;20557;-66
2022/05/04 14:09:11;;;;;;;0.90;0.90;;;13.80;33.90;;;;;;6326013;28;20234;-65
2022/05/04 14:12:17;;;;;;;1.25;0.80;;;13.80;33.80;;;;;;6350070;28;20198;-66
2022/05/04 14:15:22;;;;;;;3.53;1.17;;;13.70;33.50;;;;;;6351640;28;20647;-65
2022/05/04 14:18:30;;;;;;;9.77;1.00;;;13.70;34.00;;;;;;6350536;28;20233;-65
2022/05/04 14:21:36;;;;;;;1.27;0.90;;;13.70;33.40;;;;;;6351449;28;20202;-65
2022/05/04 14:24:43;;;;;;;5.45;1.17;;;13.70;33.20;;;;;;6350345;28;20606;-66
2022/05/04 14:27:48;;;;;;;20.17;2.35;;;13.50;32.90;;;;;;6350558;28;20230;-65
2022/05/04 14:30:59;;;;;;;1.63;0.80;;;13.60;32.70;;;;;;6332429;28;20202;-66
2022/05/04 14:34:06;;;;;;;5.32;1.10;;;13.60;33.10;;;;;;6350637;28;20236;-66
2022/05/04 14:37:11;;;;;;;2.75;1.00;;;13.50;32.70;;;;;;6350626;28;20570;-67
2022/05/04 14:40:18;;;;;;;11.00;1.40;;;13.30;32.70;;;;;;6350705;28;20652;-68
2022/05/04 14:43:24;;;;;;;0.98;0.90;;;13.30;33.20;;;;;;6350287;28;20603;-66
2022/05/04 14:46:29;;;;;;;2.75;0.98;;;13.30;32.50;;;;;;6350766;28;20639;-67
2022/05/04 14:49:43;;;;;;;3.13;0.90;;;13.30;33.00;;;;;;6350260;28;20230;-66
2022/05/04 14:52:48;;;;;;;5.05;0.82;;;13.20;32.60;;;;;;6350853;28;20582;-66
2022/05/04 14:55:56;;;;;;;3.65;1.10;;;13.20;32.60;;;;;;6350414;28;20201;-65
2022/05/04 14:59:02;;;;;;;2.60;1.00;;;13.10;32.60;;;;;;6350216;28;20566;-65
2022/05/04 15:02:09;;;;;;;2.13;1.02;;;13.10;32.50;;;;;;6350113;28;20224;-65
2022/05/04 15:05:13;;;;;;;2.38;1.00;;;13.10;32.50;;;;;;6349292;28;20216;-66
2022/05/04 15:08:19;;;;;;;0.90;0.90;;;13.00;33.10;;;;;;6349736;28;20226;-66
2022/05/04 15:11:26;;;;;;;2.92;1.00;;;13.10;33.10;;;;;;6332805;28;20514;-67
2022/05/04 15:14:34;;;;;;;11.10;1.20;;;13.10;33.50;;;;;;6324076;28;20234;-66
2022/05/04 15:17:39;;;;;;;2.15;1.10;;;13.10;34.50;;;;;;6324524;28;20573;-67
2022/05/04 15:20:44;;;;;;;8.02;1.00;;;13.10;35.50;;;;;;6325267;28;20208;-66
2022/05/04 15:23:50;;;;;;;4.07;1.17;;;13.00;36.40;;;;;;6324419;28;20595;-66
2022/05/04 15:26:57;;;;;;;8.32;1.08;;;12.90;36.70;;;;;;6324721;28;20209;-66
2022/05/04 15:30:02;;;;;;;0.80;0.80;;;13.00;37.60;;;;;;6324809;28;20211;-66
2022/05/04 15:33:08;;;;;;;0.93;0.93;;;12.90;38.90;;;;;;6325925;28;20232;-65
2022/05/04 15:36:14;;;;;;;3.20;0.90;;;12.80;39.70;;;;;;6335116;28;20311;-65
2022/05/04 15:39:19;;;;;;;3.90;1.00;;;12.90;40.60;;;;;;6337408;28;20226;-64
2022/05/04 15:42:25;;;;;;;1.63;0.88;;;12.80;41.50;;;;;;6334140;28;20253;-64
2022/05/04 15:45:31;;;;;;;4.32;1.27;;;12.60;43.10;;;;;;6325430;28;20202;-65
2022/05/04 15:48:36;;;;;;;2.00;0.85;;;12.60;44.50;;;;;;6324879;28;20243;-64
2022/05/04 15:51:42;;;;;;;1.17;1.15;;;12.70;45.30;;;;;;6323857;28;20564;-65
2022/05/04 15:54:47;;;;;;;1.13;1.00;;;12.80;46.50;;;;;;6323669;28;20222;-66
2022/05/04 15:57:54;;;;;;;4.25;0.98;;;12.70;48.40;;;;;;6323041;28;20238;-66
2022/05/04 16:01:00;;;;;;;2.15;1.10;;;12.70;49.30;;;;;;6323514;28;20234;-66
2022/05/04 16:04:08;;;;;;;4.05;1.15;;;12.80;50.40;;;;;;6322972;28;20230;-65
2022/05/04 16:07:14;;;;;;;9.73;1.30;;;12.60;51.00;;;;;;6322767;28;20516;-66
2022/05/04 16:10:19;;;;;;;4.70;1.42;;;12.70;51.30;;;;;;6332032;28;20652;-66
2022/05/04 16:13:26;;;;;;;1.60;0.88;;;12.50;52.40;;;;;;6348113;28;20240;-65
2022/05/04 16:16:31;;;;;;;1.63;1.30;;;12.40;53.10;;;;;;6347386;28;20252;-66
2022/05/04 16:23:00;;;;;;;3.33;0.98;;;12.30;54.10;;;;;;6347830;28;20234;-66
2022/05/04 16:26:05;;;;;;;1.10;1.00;;;12.30;53.90;;;;;;6348621;28;20198;-65
2022/05/04 16:29:13;;;;;;;1.73;0.90;;;12.40;53.50;;;;;;6348253;28;20601;-66
2022/05/04 16:32:18;;;;;;;1.05;1.02;;;12.40;53.20;;;;;;6347147;28;20206;-66
2022/05/04 16:35:24;;;;;;;1.10;1.10;;;12.40;51.00;;;;;;6347756;28;20224;-66
2022/05/04 16:38:30;;;;;;;0.80;0.80;;;12.30;50.20;;;;;;6347247;28;20241;-65
2022/05/04 16:41:35;;;;;;;4.85;1.25;;;12.30;48.40;;;;;;6347874;28;20206;-65
2022/05/04 16:44:42;;;;;;;3.47;1.00;;;12.30;46.60;;;;;;6348009;28;20570;-65
2022/05/04 16:47:48;;;;;;;2.08;1.10;;;12.10;46.40;;;;;;6347270;28;20226;-64
2022/05/04 16:50:53;;;;;;;4.93;1.10;;;12.00;45.60;;;;;;6347689;28;20202;-64
2022/05/04 16:53:59;;;;;;;2.65;1.10;;;11.90;46.00;;;;;;6347219;28;20226;-65
2022/05/04 16:57:05;;;;;;;1.17;1.17;;;11.80;46.20;;;;;;6346981;28;20201;-66
2022/05/04 17:00:15;;;;;;;4.50;0.93;;;11.70;46.40;;;;;;6347578;28;20672;-65
2022/05/04 17:03:21;;;;;;;1.08;1.08;;;11.70;46.40;;;;;;6347168;28;20694;-65